Time;durP1;ratioP1;P1;durP2;ratioP2;P2;SDS_P1;SDS_P2;PMS_P1;PMS_P2;Temp;Humidity;BMP_temperature;BMP_pressure;BME280_temperature;BME280_humidity;BME280_pressure;Samples;Min_cycle;Max_cycle;Signal;HPM_P1;HPM_P2
2022/09/20 00:00:50;;;;;;;1.77;1.02;;;;;;;20.47;53.59;101221.97;5095584;28;20433;-81
2022/09/20 00:03:16;;;;;;;2.53;1.20;;;;;;;20.47;53.39;101213.13;5086147;28;20029;-81
2022/09/20 00:05:44;;;;;;;3.20;1.00;;;;;;;20.43;53.46;101214.81;5091843;28;20031;-82
2022/09/20 00:08:15;;;;;;;1.55;1.00;;;;;;;20.38;53.31;101208.50;5088339;28;20023;-82
2022/09/20 00:10:41;;;;;;;1.70;0.95;;;;;;;20.39;53.60;101202.34;5094865;28;20132;-82
2022/09/20 00:13:09;;;;;;;2.53;1.02;;;;;;;20.45;53.42;101199.81;5088889;28;20103;-81
2022/09/20 00:15:40;;;;;;;1.27;1.10;;;;;;;20.42;53.43;101197.09;5087092;28;20032;-81
2022/09/20 00:18:05;;;;;;;1.35;0.90;;;;;;;20.36;53.27;101185.47;5092479;28;20711;-81
2022/09/20 00:20:31;;;;;;;1.40;0.98;;;;;;;20.39;53.42;101188.19;5103773;28;20024;-81
2022/09/20 00:22:57;;;;;;;1.92;0.80;;;;;;;20.46;53.23;101195.41;5101485;28;20062;-81
2022/09/20 00:25:22;;;;;;;1.20;0.90;;;;;;;20.37;53.00;101180.19;5095692;28;20501;-82
2022/09/20 00:27:48;;;;;;;1.65;1.20;;;;;;;20.38;53.31;101181.97;5105543;28;20070;-82
2022/09/20 00:30:13;;;;;;;1.20;1.10;;;;;;;20.41;53.24;101186.47;5088613;28;20031;-82
2022/09/20 00:32:40;;;;;;;1.95;0.73;;;;;;;20.42;53.20;101182.94;5092756;28;20032;-82
2022/09/20 00:35:09;;;;;;;;;;;;;;;20.42;53.08;101182.94;5088080;28;20032;-81
2022/09/20 00:37:40;;;;;;;2.95;0.80;;;;;;;20.42;53.11;101173.22;5080484;28;19920;-82
2022/09/20 00:40:09;;;;;;;0.85;0.80;;;;;;;20.41;53.28;101168.78;5020493;28;1410248;-82
2022/09/20 00:42:35;;;;;;;1.15;0.80;;;;;;;20.32;53.12;101156.22;5083185;28;20032;-82
2022/09/20 00:45:23;;;;;;;0.80;0.80;;;;;;;20.41;53.22;101158.19;5088017;28;20023;-82
2022/09/20 00:48:16;;;;;;;0.75;0.75;;;;;;;20.41;53.27;101155.53;5073748;28;20036;-81
2022/09/20 00:50:54;;;;;;;0.90;0.70;;;;;;;20.27;53.09;101141.97;5057544;28;20024;-82
2022/09/20 00:53:47;;;;;;;1.52;0.93;;;;;;;20.36;53.08;101148.31;5066770;28;20024;-82
2022/09/20 00:56:16;;;;;;;0.65;0.65;;;;;;;20.29;52.79;101139.34;5071278;28;20035;-82
2022/09/20 00:58:53;;;;;;;1.20;0.80;;;;;;;20.31;52.97;101142.94;5057579;28;20020;-82
2022/09/20 01:01:18;;;;;;;0.88;0.80;;;;;;;20.28;53.13;101129.63;5077735;28;20516;-83
2022/09/20 01:03:44;;;;;;;0.98;0.80;;;;;;;20.26;53.20;101134.91;5074920;28;20119;-83
2022/09/20 01:06:13;;;;;;;1.88;0.70;;;;;;;20.33;52.95;101144.75;5078682;28;20073;-83
2022/09/20 01:08:40;;;;;;;0.60;0.60;;;;;;;20.29;53.18;101137.59;5072363;28;20028;-83
2022/09/20 01:11:06;;;;;;;0.90;0.90;;;;;;;20.30;53.02;101135.84;5077478;28;20028;-82
2022/09/20 01:13:31;;;;;;;1.30;0.90;;;;;;;20.25;53.05;101121.59;5069104;28;20020;-83
2022/09/20 01:15:59;;;;;;;1.83;0.80;;;;;;;20.26;52.95;101126.06;5087555;28;20028;-83
2022/09/20 01:18:25;;;;;;;1.17;0.77;;;;;;;20.28;52.82;101117.25;5072725;28;20056;-83
2022/09/20 01:20:51;;;;;;;0.75;0.75;;;;;;;20.33;52.58;101123.53;5069282;28;20055;-82
2022/09/20 01:23:43;;;;;;;0.70;0.55;;;;;;;20.34;53.01;101122.69;5081943;28;20562;-82
2022/09/20 01:26:51;;;;;;;0.50;0.50;;;;;;;20.34;52.63;101121.78;5089589;28;20028;-83
2022/09/20 01:29:31;;;;;;;1.43;0.80;;;;;;;20.32;52.90;101131.47;5085614;28;20016;-83
2022/09/20 01:32:00;;;;;;;0.60;0.60;;;;;;;20.27;52.97;101120.75;5089459;28;20028;-82
2022/09/20 01:34:31;;;;;;;0.63;0.63;;;;;;;20.34;52.66;101138.59;5075580;28;20077;-83
2022/09/20 01:37:24;;;;;;;0.65;0.65;;;;;;;20.25;52.88;101125.13;5055501;28;20179;-82
2022/09/20 01:39:53;;;;;;;0.77;0.77;;;;;;;20.27;52.75;101120.75;5085159;27;20056;-82
2022/09/20 01:42:24;;;;;;;0.80;0.80;;;;;;;20.09;52.62;101094.78;5091805;28;20181;-82
2022/09/20 01:45:00;;;;;;;0.75;0.75;;;;;;;20.21;52.83;101127.69;5080624;28;20028;-82
2022/09/20 01:47:37;;;;;;;0.60;0.60;;;;;;;20.25;52.23;101126.91;5112750;28;20473;-83
2022/09/20 01:50:45;;;;;;;1.00;0.70;;;;;;;20.29;52.48;101128.75;5113661;28;20059;-82
2022/09/20 01:53:25;;;;;;;2.08;0.70;;;;;;;20.27;52.44;101127.81;5112328;27;20032;-83
2022/09/20 01:56:02;;;;;;;0.95;0.70;;;;;;;20.29;52.55;101119.03;5113033;28;20106;-83
2022/09/20 01:58:46;;;;;;;0.57;0.50;;;;;;;20.25;52.36;101132.19;5106042;28;20070;-83
2022/09/20 02:01:49;;;;;;;0.93;0.60;;;;;;;20.22;52.31;101137.47;5115293;27;20032;-82
2022/09/20 02:04:50;;;;;;;0.93;0.70;;;;;;;20.26;52.35;101142.84;5105292;27;20039;-83
2022/09/20 02:07:34;;;;;;;1.33;0.50;;;;;;;20.29;52.37;101139.34;5091422;28;20055;-82
2022/09/20 02:10:15;;;;;;;0.73;0.73;;;;;;;20.21;52.55;101136.53;5104313;27;20082;-82
2022/09/20 02:13:01;;;;;;;0.50;0.50;;;;;;;19.99;52.29;101103.41;5112187;27;20546;-82
2022/09/20 02:16:04;;;;;;;0.57;0.52;;;;;;;20.22;52.04;101133.03;5089871;28;20038;-82
2022/09/20 02:18:36;;;;;;;4.80;0.90;;;;;;;20.22;52.27;101132.16;5103726;27;20032;-82
2022/09/20 02:21:37;;;;;;;0.50;0.50;;;;;;;20.17;52.31;101120.53;5111005;27;20032;-82
2022/09/20 02:24:17;;;;;;;0.50;0.50;;;;;;;20.16;52.42;101132.03;5092962;28;20063;-81
2022/09/20 02:27:10;;;;;;;0.50;0.50;;;;;;;20.18;52.28;101138.25;5095310;28;20015;-81
2022/09/20 02:29:51;;;;;;;0.55;0.50;;;;;;;20.20;52.37;101132.13;5107350;27;20026;-82
2022/09/20 02:32:51;;;;;;;2.20;0.57;;;;;;;20.11;52.37;101122.22;5077352;28;20078;-82
2022/09/20 02:35:55;;;;;;;0.60;0.60;;;;;;;20.19;52.60;101142.69;5106945;27;20028;-82
2022/09/20 02:38:59;;;;;;;1.08;0.60;;;;;;;19.97;52.58;101125.44;5092015;27;20109;-82
2022/09/20 02:41:46;;;;;;;0.50;0.50;;;;;;;20.03;52.56;101139.72;5089862;28;20064;-82
2022/09/20 02:44:28;;;;;;;0.50;0.50;;;;;;;19.99;52.70;101118.41;5067751;28;20451;-82
2022/09/20 02:47:14;;;;;;;0.77;0.70;;;;;;;20.04;52.40;101140.59;5062889;28;20063;-82
2022/09/20 02:49:59;;;;;;;1.08;0.65;;;;;;;19.96;53.01;101128.94;5093988;28;20132;-81
2022/09/20 02:52:42;;;;;;;0.60;0.60;;;;;;;19.97;52.31;101144.88;5086941;28;20029;-81
2022/09/20 02:55:20;;;;;;;1.08;0.60;;;;;;;19.99;52.25;101134.31;5085286;28;20047;-82
2022/09/20 02:58:07;;;;;;;0.85;0.80;;;;;;;19.91;52.83;101135.03;5073572;28;20119;-83
2022/09/20 03:00:41;;;;;;;0.63;0.57;;;;;;;19.80;52.48;101111.81;5071581;28;20028;-84
2022/09/20 03:03:40;;;;;;;0.80;0.50;;;;;;;19.93;52.70;101135.06;5073533;28;20111;-83
2022/09/20 03:06:10;;;;;;;0.95;0.50;;;;;;;19.86;52.54;101106.66;5073987;28;20577;-82
2022/09/20 03:08:36;;;;;;;0.57;0.57;;;;;;;19.96;52.76;101137.81;5085364;28;20032;-84
2022/09/20 03:11:28;;;;;;;0.65;0.60;;;;;;;19.93;52.67;101137.72;5099127;28;20038;-83
2022/09/20 03:14:06;;;;;;;0.70;0.50;;;;;;;19.93;52.68;101137.72;5057625;28;20021;-83
2022/09/20 03:16:46;;;;;;;3.22;0.50;;;;;;;20.01;52.61;101140.56;5080670;28;20382;-83
2022/09/20 03:19:42;;;;;;;0.65;0.50;;;;;;;20.02;52.42;101140.56;5069377;28;20445;-84
2022/09/20 03:22:26;;;;;;;1.35;0.60;;;;;;;20.01;52.50;101145.84;5067620;28;20039;-85
2022/09/20 03:25:07;;;;;;;0.70;0.60;;;;;;;19.86;52.61;101128.75;5091662;28;20032;-85
2022/09/20 03:27:51;;;;;;;0.60;0.60;;;;;;;19.93;52.66;101141.25;5092125;28;20028;-85
2022/09/20 03:30:54;;;;;;;1.75;0.50;;;;;;;19.99;52.37;101160.84;5085762;28;20028;-86
2022/09/20 03:33:38;;;;;;;0.55;0.55;;;;;;;19.94;52.51;101155.44;5096238;28;20027;-84
2022/09/20 03:36:35;;;;;;;0.50;0.50;;;;;;;19.93;52.49;101151.88;5091884;28;20478;-85
2022/09/20 03:39:30;;;;;;;0.70;0.60;;;;;;;20.04;52.14;101162.69;5074206;28;20123;-84
2022/09/20 03:42:10;;;;;;;1.30;0.63;;;;;;;20.01;52.24;101165.31;5062806;28;20081;-85
2022/09/20 03:45:00;;;;;;;0.70;0.70;;;;;;;19.88;52.38;101163.25;5085462;28;20028;-85
2022/09/20 03:47:55;;;;;;;0.77;0.77;;;;;;;20.01;52.52;101180.31;5096636;28;20081;-85
2022/09/20 03:50:35;;;;;;;1.40;0.70;;;;;;;20.01;52.43;101189.16;5055729;28;20024;-85
2022/09/20 03:53:23;;;;;;;0.70;0.70;;;;;;;19.97;52.32;101187.28;5064607;28;20020;-84
2022/09/20 03:55:56;;;;;;;;;;;;;;;20.01;52.20;101204.19;5084869;28;20106;-86
2022/09/20 03:58:40;;;;;;;0.60;0.60;;;;;;;19.98;52.29;101204.09;5070481;28;20007;-83
2022/09/20 04:01:22;;;;;;;1.05;0.70;;;;;;;19.97;52.54;101211.16;5085225;28;20032;-84
2022/09/20 04:04:12;;;;;;;2.85;0.70;;;;;;;19.91;52.63;101203.94;5068051;28;20023;-83
2022/09/20 04:06:58;;;;;;;0.80;0.80;;;;;;;19.94;52.38;101213.75;5053422;28;20063;-84
2022/09/20 04:09:51;;;;;;;0.80;0.80;;;;;;;20.02;52.37;101225.41;5087897;28;20052;-82
2022/09/20 04:12:43;;;;;;;0.88;0.70;;;;;;;19.92;52.14;101211.06;5079480;28;20127;-81
2022/09/20 04:15:11;;;;;;;1.00;0.70;;;;;;;20.01;52.23;101228.03;5066230;28;20021;-80
2022/09/20 04:18:01;;;;;;;1.17;0.80;;;;;;;20.02;52.06;101235.13;5083386;28;20031;-82
2022/09/20 04:20:51;;;;;;;0.80;0.80;;;;;;;20.02;52.65;101238.66;5074340;28;20028;-80
2022/09/20 04:23:52;;;;;;;0.85;0.85;;;;;;;19.97;52.24;101245.63;5074971;28;20111;-79
2022/09/20 04:26:27;;;;;;;1.35;1.00;;;;;;;19.98;52.44;101247.44;5066525;28;20106;-80
2022/09/20 04:29:05;;;;;;;0.85;0.85;;;;;;;19.88;52.80;101242.75;5074852;28;20039;-79
2022/09/20 04:31:52;;;;;;;0.85;0.85;;;;;;;19.88;52.82;101241.00;5089634;28;20032;-81
2022/09/20 04:36:27;;;;;;;1.13;0.90;;;;;;;19.85;52.66;101243.56;5105736;28;20051;-82
2022/09/20 04:37:26;;;;;;;1.00;1.00;;;;;;;19.93;52.56;101249.06;5074856;28;20025;-82
2022/09/20 04:40:02;;;;;;;1.90;1.20;;;;;;;19.86;52.33;101242.72;5072580;28;20044;-81
2022/09/20 04:42:31;;;;;;;;;;;;;;;19.93;52.42;101254.34;5080379;28;20078;-81
2022/09/20 04:45:21;;;;;;;2.53;0.98;;;;;;;19.91;52.51;101256.06;5082215;28;20362;-81
2022/09/20 04:48:03;;;;;;;1.30;0.93;;;;;;;19.91;52.33;101256.06;5077474;28;20027;-81
2022/09/20 04:50:40;;;;;;;2.28;1.10;;;;;;;19.96;52.34;101257.09;5088105;28;20042;-82
2022/09/20 04:53:20;;;;;;;1.08;0.98;;;;;;;19.92;52.31;101248.16;5089124;28;20043;-82
2022/09/20 04:56:06;;;;;;;1.25;1.02;;;;;;;19.97;52.49;101252.69;5079504;28;20028;-82
2022/09/20 04:58:57;;;;;;;2.22;1.00;;;;;;;19.97;52.33;101260.63;5067219;28;20028;-81
2022/09/20 05:01:35;;;;;;;1.15;0.90;;;;;;;19.90;52.45;101262.25;5079967;28;20466;-80
2022/09/20 05:04:39;;;;;;;1.58;1.20;;;;;;;19.90;52.53;101265.78;5084836;28;20056;-80
2022/09/20 05:07:26;;;;;;;1.40;1.20;;;;;;;19.83;52.43;101261.22;5080910;28;20493;-81
2022/09/20 05:09:55;;;;;;;1.10;1.00;;;;;;;19.89;52.23;101268.41;5072857;28;20024;-81
2022/09/20 05:12:58;;;;;;;1.30;1.20;;;;;;;19.82;52.36;101274.41;5075793;28;20028;-81
2022/09/20 05:15:54;;;;;;;1.35;1.25;;;;;;;19.82;52.26;101277.97;5078595;28;20028;-82
2022/09/20 05:18:34;;;;;;;1.00;1.00;;;;;;;19.82;52.13;101285.91;5075924;28;20115;-81
2022/09/20 05:21:06;;;;;;;1.05;1.05;;;;;;;19.85;52.28;101280.66;5074852;28;20482;-83
2022/09/20 05:23:35;;;;;;;1.20;1.10;;;;;;;19.83;52.41;101282.41;5067976;28;20107;-83
2022/09/20 05:26:14;;;;;;;2.10;1.15;;;;;;;19.91;52.25;101282.59;5082696;28;20056;-81
2022/09/20 05:29:13;;;;;;;1.10;1.00;;;;;;;19.88;52.36;101291.38;5087300;28;20116;-81
2022/09/20 05:31:59;;;;;;;2.00;1.10;;;;;;;19.90;52.34;101294.06;5068687;28;20032;-82
2022/09/20 05:34:43;;;;;;;2.47;1.10;;;;;;;19.91;52.30;101296.72;5084776;28;20485;-82
2022/09/20 05:37:30;;;;;;;1.10;1.10;;;;;;;19.87;52.37;101299.28;5087166;28;20016;-82
2022/09/20 05:40:14;;;;;;;;;;;;;;;19.92;52.23;101302.94;5089581;28;20119;-82
2022/09/20 05:42:47;;;;;;;1.10;1.10;;;;;;;19.76;52.75;101299.00;5062420;28;19919;-81
2022/09/20 05:45:22;;;;;;;1.20;1.10;;;;;;;19.82;52.38;101300.91;5089054;28;20459;-80
2022/09/20 05:48:17;;;;;;;1.15;1.05;;;;;;;19.87;52.62;101305.47;5075522;28;20160;-81
2022/09/20 05:50:42;;;;;;;1.20;1.10;;;;;;;19.84;52.05;101304.50;5051985;28;20520;-80
2022/09/20 05:53:39;;;;;;;2.58;1.42;;;;;;;19.86;52.22;101316.03;5076381;28;20016;-79
2022/09/20 05:56:08;;;;;;;2.35;1.25;;;;;;;19.79;51.91;101322.94;5077913;28;20082;-79
2022/09/20 05:59:00;;;;;;;1.23;1.15;;;;;;;19.78;51.81;101323.78;5054517;28;20050;-82
2022/09/20 06:01:31;;;;;;;1.40;1.30;;;;;;;19.77;51.96;101314.06;5062856;28;20081;-82
2022/09/20 06:04:20;;;;;;;1.17;1.13;;;;;;;19.76;51.84;101312.25;5074824;28;20406;-81
2022/09/20 06:07:16;;;;;;;1.30;1.20;;;;;;;19.73;51.97;101317.50;5060425;28;20035;-80
2022/09/20 06:09:58;;;;;;;1.20;1.10;;;;;;;19.53;51.54;101280.72;5087655;28;20019;-82
2022/09/20 06:12:36;;;;;;;1.42;1.13;;;;;;;19.79;52.17;101319.38;5080648;28;20122;-83
2022/09/20 06:15:23;;;;;;;1.13;1.02;;;;;;;19.75;51.96;101321.09;5095691;28;20095;-81
2022/09/20 06:17:55;;;;;;;1.92;1.20;;;;;;;19.80;51.85;101314.13;5076716;28;20146;-80
2022/09/20 06:20:45;;;;;;;7.85;1.60;;;;;;;19.76;51.91;101314.03;5061283;28;20116;-81
2022/09/20 06:23:11;;;;;;;4.38;1.63;;;;;;;19.68;52.00;101317.34;5065723;28;20027;-80
2022/09/20 06:25:56;;;;;;;3.95;1.42;;;;;;;19.63;51.98;101313.66;5097398;28;20020;-81
2022/09/20 06:28:26;;;;;;;2.53;1.33;;;;;;;19.72;51.73;101300.66;5071256;28;20032;-82
2022/09/20 06:30:53;;;;;;;3.58;1.55;;;;;;;19.78;51.79;101307.00;5076264;28;20028;-80
2022/09/20 06:33:21;;;;;;;3.80;1.45;;;;;;;19.70;52.25;101318.28;5072467;28;20405;-80
2022/09/20 06:41:25;;;;;;;3.90;1.20;;;;;;;19.72;52.16;101316.56;5064384;28;20045;-81
2022/09/20 06:41:50;;;;;;;4.38;1.30;;;;;;;19.78;51.70;101334.41;5098556;27;20110;-81
2022/09/20 06:44:15;;;;;;;1.80;1.20;;;;;;;19.67;52.01;101325.25;5118092;27;20031;-81
2022/09/20 06:46:41;;;;;;;1.70;1.38;;;;;;;19.74;51.68;101332.53;5112882;28;20024;-80
2022/09/20 06:49:08;;;;;;;1.27;1.15;;;;;;;19.69;52.00;101337.69;5106456;28;20039;-82
2022/09/20 06:51:36;;;;;;;2.08;1.30;;;;;;;19.74;51.87;101340.47;5117601;27;20416;-82
2022/09/20 06:54:02;;;;;;;1.70;1.27;;;;;;;19.72;52.14;101344.84;5111618;27;20069;-82
2022/09/20 06:56:30;;;;;;;2.53;1.30;;;;;;;19.69;51.95;101342.09;5102127;28;20055;-82
2022/09/20 06:58:55;;;;;;;1.83;1.23;;;;;;;19.69;51.68;101335.03;5076066;28;20061;-81
2022/09/20 07:01:21;;;;;;;1.42;1.05;;;;;;;19.74;51.77;101340.47;5110884;27;20409;-81
2022/09/20 07:03:47;;;;;;;1.77;1.30;;;;;;;19.71;51.47;101346.59;5107606;27;20036;-80
2022/09/20 07:06:16;;;;;;;1.27;1.20;;;;;;;19.69;51.59;101352.69;5117556;27;20019;-81
2022/09/20 07:08:42;;;;;;;1.30;1.20;;;;;;;19.73;51.56;101344.00;5106914;27;20052;-81
2022/09/20 07:11:16;;;;;;;1.10;1.00;;;;;;;19.73;52.05;101351.94;5111079;27;20059;-81
2022/09/20 07:13:48;;;;;;;3.38;1.30;;;;;;;19.72;51.38;101351.03;5123173;27;20031;-82
2022/09/20 07:16:14;;;;;;;1.00;1.00;;;;;;;19.54;51.91;101318.75;5129716;27;20507;-82
2022/09/20 07:18:40;;;;;;;1.20;1.10;;;;;;;19.58;51.92;101341.81;5114499;27;20024;-81
2022/09/20 07:21:10;;;;;;;2.70;1.33;;;;;;;19.49;51.60;101336.25;5105413;28;20031;-81
2022/09/20 07:23:35;;;;;;;1.95;1.00;;;;;;;19.59;51.82;101366.53;5110582;28;20031;-82
2022/09/20 07:26:01;;;;;;;1.25;1.17;;;;;;;19.60;51.79;101376.28;5112609;28;20028;-81
2022/09/20 07:28:28;;;;;;;1.00;1.00;;;;;;;19.61;51.67;101363.06;5112357;28;20036;-81
2022/09/20 07:30:53;;;;;;;1.13;1.10;;;;;;;19.59;51.51;101367.44;5112579;28;20516;-81
2022/09/20 07:33:20;;;;;;;1.30;1.20;;;;;;;19.63;51.40;101371.06;5112157;28;20024;-81
2022/09/20 07:35:47;;;;;;;1.20;1.10;;;;;;;19.59;51.83;101362.13;5104228;28;20042;-82
2022/09/20 07:38:14;;;;;;;1.00;1.00;;;;;;;19.54;51.82;101363.78;5086095;28;20152;-82
2022/09/20 07:40:40;;;;;;;2.85;1.30;;;;;;;19.36;51.23;101319.13;5084628;28;20024;-82
2022/09/20 07:43:05;;;;;;;1.00;1.00;;;;;;;19.61;51.63;101376.31;5092817;28;20023;-81
2022/09/20 07:45:33;;;;;;;1.27;1.17;;;;;;;19.52;51.70;101370.78;5093047;28;20067;-82
2022/09/20 07:48:01;;;;;;;1.70;1.05;;;;;;;19.61;51.95;101370.13;5091937;28;20076;-82
2022/09/20 07:50:26;;;;;;;1.30;1.20;;;;;;;19.54;52.12;101361.13;5072828;28;20027;-82
2022/09/20 07:52:56;;;;;;;1.27;1.17;;;;;;;19.44;51.96;101361.72;5091890;28;20549;-82
2022/09/20 07:55:21;;;;;;;0.93;0.90;;;;;;;19.49;51.68;101365.38;5086418;28;20027;-82
2022/09/20 07:57:47;;;;;;;3.30;1.15;;;;;;;19.24;51.26;101326.75;5095813;28;20024;-83
2022/09/20 08:00:13;;;;;;;1.77;1.05;;;;;;;19.50;51.74;101357.50;5091983;28;20074;-82
2022/09/20 08:02:39;;;;;;;1.20;1.10;;;;;;;19.48;51.35;101351.25;5059445;28;20054;-82
2022/09/20 08:05:05;;;;;;;2.90;1.20;;;;;;;19.51;51.47;101353.09;5091712;28;20028;-83
2022/09/20 08:07:30;;;;;;;;;;;;;;;19.50;51.53;101361.91;5091654;28;20028;-81
2022/09/20 08:09:56;;;;;;;1.25;1.00;;;;;;;19.52;51.84;101350.47;5091536;28;19914;-82
2022/09/20 08:12:22;;;;;;;1.35;1.15;;;;;;;19.18;51.92;101306.31;5090364;28;20473;-82
2022/09/20 08:14:47;;;;;;;1.90;1.10;;;;;;;19.47;51.42;101352.13;5088114;28;20075;-82
2022/09/20 08:17:13;;;;;;;1.45;1.10;;;;;;;19.47;51.61;101356.50;5093150;28;20042;-82
2022/09/20 08:19:39;;;;;;;1.08;1.02;;;;;;;19.45;52.01;101356.47;5077012;28;20413;-81
2022/09/20 08:22:05;;;;;;;1.10;1.00;;;;;;;19.47;52.05;101343.25;5091349;28;20024;-82
2022/09/20 08:24:31;;;;;;;1.00;1.00;;;;;;;19.47;51.92;101351.19;5073315;28;20059;-82
2022/09/20 08:26:58;;;;;;;1.05;1.02;;;;;;;19.44;51.73;101343.19;5101012;28;20500;-82
2022/09/20 08:29:24;;;;;;;;;;;;;;;19.46;52.10;101352.06;5091399;28;20059;-81
2022/09/20 08:31:51;;;;;;;0.98;0.98;;;;;;;19.37;52.32;101342.13;5069860;28;20396;-81
2022/09/20 08:34:17;;;;;;;1.90;1.15;;;;;;;19.24;52.31;101318.78;5089267;28;20024;-82
2022/09/20 08:36:45;;;;;;;1.05;1.05;;;;;;;19.48;52.01;101345.94;5091022;28;20032;-82
2022/09/20 08:39:12;;;;;;;1.30;1.08;;;;;;;19.41;52.20;101338.72;5091698;28;20040;-81
2022/09/20 08:41:56;;;;;;;1.30;1.20;;;;;;;19.48;52.17;101339.78;5103849;28;20038;-80
2022/09/20 08:44:24;;;;;;;1.10;1.10;;;;;;;19.48;51.98;101340.66;5091204;28;20020;-82
2022/09/20 08:47:00;;;;;;;1.20;1.10;;;;;;;19.40;52.29;101326.31;5090698;28;20505;-81
2022/09/20 08:49:27;;;;;;;0.95;0.95;;;;;;;19.43;52.06;101333.44;5082485;28;20412;-81
2022/09/20 08:51:56;;;;;;;2.03;1.13;;;;;;;19.46;52.26;101334.41;5089672;28;20401;-81
2022/09/20 08:54:23;;;;;;;2.22;1.10;;;;;;;19.43;52.00;101323.75;5078769;28;20506;-81
2022/09/20 08:56:49;;;;;;;1.20;1.10;;;;;;;19.45;51.95;101323.78;5069061;28;20546;-82
2022/09/20 08:59:18;;;;;;;;;;;;;;;19.49;52.17;101317.72;5085479;28;20024;-82
2022/09/20 09:01:45;;;;;;;1.55;0.90;;;;;;;19.45;52.16;101319.41;5074373;28;19907;-82
2022/09/20 09:04:12;;;;;;;1.67;1.23;;;;;;;19.43;52.19;101315.81;5076785;28;20027;-82
2022/09/20 09:06:39;;;;;;;1.35;1.20;;;;;;;19.42;52.20;101310.47;5104837;28;20024;-82
2022/09/20 09:09:04;;;;;;;;;;;;;;;19.47;52.14;101316.75;5074581;28;20031;-82
2022/09/20 09:11:30;;;;;;;1.02;0.98;;;;;;;19.47;52.60;101311.47;5079525;28;19908;-82
2022/09/20 09:14:03;;;;;;;1.15;1.05;;;;;;;19.39;52.45;101297.13;5088994;28;20117;-82
2022/09/20 09:16:31;;;;;;;1.20;1.20;;;;;;;19.46;52.68;101302.63;5102110;28;20050;-81
2022/09/20 09:18:57;;;;;;;1.13;1.02;;;;;;;19.40;52.71;101297.19;5091437;28;20025;-82
2022/09/20 09:21:32;;;;;;;1.30;1.20;;;;;;;19.49;52.26;101310.69;5071351;28;20412;-82
2022/09/20 09:24:01;;;;;;;1.30;1.15;;;;;;;19.44;52.52;101298.16;5094821;28;20153;-82
2022/09/20 09:26:28;;;;;;;1.27;1.00;;;;;;;19.45;52.57;101306.16;5092881;28;20023;-82
2022/09/20 09:29:19;;;;;;;1.02;1.00;;;;;;;19.43;52.58;101294.63;5064020;28;20032;-82
2022/09/20 09:31:47;;;;;;;1.58;1.00;;;;;;;19.44;52.69;101293.75;5108271;28;20062;-83
2022/09/20 09:34:25;;;;;;;0.95;0.95;;;;;;;19.39;52.59;101295.41;5105446;28;20106;-82
2022/09/20 09:36:53;;;;;;;1.20;1.10;;;;;;;19.43;52.56;101301.66;5061629;28;20020;-81
2022/09/20 09:39:34;;;;;;;1.23;1.00;;;;;;;19.43;52.41;101297.28;5104102;28;20039;-81
2022/09/20 09:42:18;;;;;;;1.05;0.88;;;;;;;19.47;52.63;101304.44;5112805;28;20066;-81
2022/09/20 09:44:49;;;;;;;0.90;0.90;;;;;;;19.45;52.11;101292.00;5096664;28;20024;-81
2022/09/20 09:47:39;;;;;;;1.30;1.00;;;;;;;19.45;52.63;101297.28;5132418;27;20495;-81
2022/09/20 09:50:05;;;;;;;2.20;1.17;;;;;;;19.48;52.52;101305.34;5116775;27;20030;-82
2022/09/20 09:52:32;;;;;;;1.35;1.00;;;;;;;19.36;52.33;101295.28;5135067;27;20023;-83
2022/09/20 09:55:00;;;;;;;1.00;1.00;;;;;;;19.46;52.66;101302.63;5121999;27;20610;-82
2022/09/20 09:57:40;;;;;;;1.05;0.95;;;;;;;19.44;52.55;101299.03;5079643;28;20067;-82
2022/09/20 10:00:13;;;;;;;1.27;1.00;;;;;;;19.46;52.53;101301.75;5115370;27;20042;-82
2022/09/20 10:03:08;;;;;;;1.10;1.10;;;;;;;19.41;52.78;101311.31;5092042;28;20493;-82
2022/09/20 10:06:10;;;;;;;2.88;1.10;;;;;;;19.44;52.48;101300.81;5093976;28;20394;-81
2022/09/20 10:08:44;;;;;;;1.00;1.00;;;;;;;19.36;52.55;101282.06;5105350;28;20620;-82
2022/09/20 10:11:28;;;;;;;1.02;1.00;;;;;;;19.50;52.75;101303.63;5126355;27;20035;-81
2022/09/20 10:14:30;;;;;;;1.10;1.00;;;;;;;19.49;52.81;101299.16;5106970;28;20011;-80
2022/09/20 10:17:22;;;;;;;1.13;1.10;;;;;;;19.44;53.01;101288.44;5110859;27;20577;-82
2022/09/20 10:20:14;;;;;;;1.08;1.08;;;;;;;19.42;53.16;101287.50;5093593;28;20028;-81
2022/09/20 10:23:31;;;;;;;1.17;0.93;;;;;;;19.43;52.83;101272.50;5106037;28;20077;-83
2022/09/20 10:26:21;;;;;;;1.15;1.05;;;;;;;19.46;52.54;101268.19;5112446;28;20034;-83
2022/09/20 10:28:59;;;;;;;1.13;0.90;;;;;;;19.48;53.05;101277.09;5078206;28;20416;-82
2022/09/20 10:31:59;;;;;;;1.20;1.10;;;;;;;19.40;52.91;101257.44;5109037;28;20511;-82
2022/09/20 10:34:34;;;;;;;1.10;1.10;;;;;;;19.50;53.13;101282.44;5131974;27;20019;-81
2022/09/20 10:37:00;;;;;;;0.80;0.80;;;;;;;19.48;52.54;101277.09;5131601;27;20441;-81
2022/09/20 10:39:40;;;;;;;0.93;0.90;;;;;;;19.45;52.81;101269.06;5094339;27;20079;-80
2022/09/20 10:45:21;;;;;;;1.00;1.00;;;;;;;19.49;52.74;101273.59;5074369;28;20031;-81
2022/09/20 10:48:14;;;;;;;1.10;1.00;;;;;;;19.41;52.92;101268.94;5078069;28;20055;-81
2022/09/20 10:51:06;;;;;;;0.88;0.82;;;;;;;19.47;52.68;101266.44;5072802;28;20573;-81
2022/09/20 10:53:50;;;;;;;0.88;0.88;;;;;;;19.46;52.79;101262.91;5033462;28;20036;-81
2022/09/20 10:56:32;;;;;;;1.00;1.00;;;;;;;19.48;52.97;101266.50;5092786;28;20027;-81
2022/09/20 10:59:13;;;;;;;1.00;1.00;;;;;;;19.47;52.50;101262.06;5070870;28;20020;-81
2022/09/20 11:01:46;;;;;;;0.80;0.80;;;;;;;19.48;52.82;101261.19;5089860;28;20055;-81
2022/09/20 11:04:30;;;;;;;1.60;0.90;;;;;;;19.51;52.84;101278.91;5087252;28;20038;-80
2022/09/20 11:07:30;;;;;;;1.30;1.20;;;;;;;19.51;53.24;101261.28;5086674;28;20020;-81
2022/09/20 11:10:35;;;;;;;0.75;0.75;;;;;;;19.53;53.00;101262.19;5037669;28;20046;-81
2022/09/20 11:13:09;;;;;;;0.80;0.80;;;;;;;19.35;52.20;101223.78;5006498;28;20052;-81
2022/09/20 11:15:46;;;;;;;1.40;0.98;;;;;;;19.55;52.21;101253.41;5046829;28;20398;-81
2022/09/20 11:18:22;;;;;;;1.15;0.80;;;;;;;19.61;52.01;101253.56;5089154;28;20021;-81
2022/09/20 11:20:57;;;;;;;1.13;1.00;;;;;;;19.05;51.70;101162.13;5084907;28;20102;-81
2022/09/20 11:24:02;;;;;;;0.80;0.80;;;;;;;19.59;51.95;101242.03;5070164;28;20160;-81
2022/09/20 11:26:34;;;;;;;0.70;0.70;;;;;;;19.63;51.38;101241.25;5066288;28;20032;-81
2022/09/20 11:29:14;;;;;;;0.80;0.80;;;;;;;19.59;51.33;101232.31;5092438;28;20024;-82
2022/09/20 11:31:42;;;;;;;0.80;0.80;;;;;;;19.21;51.83;101174.00;5073961;28;20106;-81
2022/09/20 11:34:14;;;;;;;0.95;0.93;;;;;;;19.59;52.23;101252.63;5074066;28;20020;-82
2022/09/20 11:36:52;;;;;;;0.75;0.70;;;;;;;19.60;50.93;101242.06;5083082;28;20020;-82
2022/09/20 11:39:28;;;;;;;0.90;0.90;;;;;;;19.64;52.03;101243.94;5095149;28;20040;-82
2022/09/20 11:41:55;;;;;;;0.82;0.82;;;;;;;19.52;51.84;101222.44;5075782;28;20055;-83
2022/09/20 11:44:21;;;;;;;1.00;0.90;;;;;;;19.58;52.09;101238.47;5070054;28;20028;-83
2022/09/20 11:47:15;;;;;;;0.98;0.98;;;;;;;19.63;51.56;101239.47;5089429;28;20104;-82
2022/09/20 11:49:53;;;;;;;0.63;0.63;;;;;;;19.67;52.21;101245.75;5081011;28;20429;-83
2022/09/20 11:52:44;;;;;;;1.05;0.70;;;;;;;19.52;52.06;101206.53;5086373;28;20032;-81
2022/09/20 11:55:35;;;;;;;0.85;0.80;;;;;;;19.71;51.94;101232.66;5098524;28;20023;-80
2022/09/20 11:58:07;;;;;;;0.77;0.77;;;;;;;19.74;51.42;101237.13;5083620;28;20020;-80
2022/09/20 12:00:35;;;;;;;1.40;0.70;;;;;;;19.73;51.75;101233.59;5089675;28;20028;-80
2022/09/20 12:03:03;;;;;;;0.73;0.73;;;;;;;19.81;51.84;101239.09;5094936;28;20028;-81
2022/09/20 12:05:37;;;;;;;0.70;0.70;;;;;;;19.79;51.89;101250.47;5060270;28;20031;-81
2022/09/20 12:08:05;;;;;;;0.82;0.80;;;;;;;19.82;51.74;101237.31;5080218;28;20054;-81
2022/09/20 12:10:34;;;;;;;0.70;0.70;;;;;;;19.81;52.11;101243.47;5102400;28;20084;-80
2022/09/20 12:13:22;;;;;;;0.70;0.70;;;;;;;19.82;51.96;101239.97;5088626;28;20028;-80
2022/09/20 12:16:07;;;;;;;0.93;0.80;;;;;;;19.87;51.78;101230.34;5065493;28;20020;-80
2022/09/20 12:18:52;;;;;;;0.85;0.70;;;;;;;19.87;51.44;101244.50;5092977;28;20032;-87
2022/09/20 12:21:19;;;;;;;0.70;0.70;;;;;;;19.88;52.00;101238.34;5088543;28;20156;-87